Time;durP1;ratioP1;P1;durP2;ratioP2;P2;SDS_P1;SDS_P2;PMS_P1;PMS_P2;Temp;Humidity;BMP_temperature;BMP_pressure;BME280_temperature;BME280_humidity;BME280_pressure;Samples;Min_cycle;Max_cycle;Signal;HPM_P1;HPM_P2
2021/12/01 00:01:56;;;;;;;5.00;1.30;;;;;;;6.02;100.00;99405.00;5192784;28;20087;-77
2021/12/01 00:04:26;;;;;;;5.78;1.40;;;;;;;6.05;100.00;99404.91;5192341;28;20021;-79
2021/12/01 00:06:57;;;;;;;4.03;1.58;;;;;;;6.02;100.00;99400.66;5192860;28;20029;-80
2021/12/01 00:09:27;;;;;;;8.52;1.52;;;;;;;6.08;100.00;99397.00;5192152;28;20272;-78
2021/12/01 00:11:58;;;;;;;4.95;1.10;;;;;;;6.14;100.00;99383.81;5193615;28;20524;-76
2021/12/01 00:14:28;;;;;;;4.03;1.00;;;;;;;6.06;100.00;99376.31;5190579;28;20640;-81
2021/12/01 00:16:58;;;;;;;6.95;1.17;;;;;;;6.14;100.00;99368.25;5188659;28;20370;-78
2021/12/01 00:19:29;;;;;;;5.90;1.05;;;;;;;6.22;100.00;99366.22;5190997;28;20105;-80
2021/12/01 00:22:00;;;;;;;6.35;1.48;;;;;;;6.23;100.00;99360.97;5192896;28;20321;-78
2021/12/01 00:24:30;;;;;;;7.53;1.48;;;;;;;6.18;100.00;99355.13;5192668;28;20029;-80
2021/12/01 00:27:01;;;;;;;5.63;1.00;;;;;;;6.16;100.00;99354.34;5192525;28;20514;-79
2021/12/01 00:29:31;;;;;;;3.97;1.00;;;;;;;6.09;100.00;99352.84;5190653;28;20148;-79
2021/12/01 00:32:03;;;;;;;6.22;1.67;;;;;;;6.22;100.00;99335.94;5193631;28;20021;-81
2021/12/01 00:34:34;;;;;;;6.97;1.50;;;;;;;6.32;100.00;99332.09;5192953;28;20029;-80
2021/12/01 00:37:04;;;;;;;6.22;1.60;;;;;;;6.21;100.00;99328.19;5189612;28;20545;-78
2021/12/01 00:39:35;;;;;;;5.88;1.67;;;;;;;6.09;100.00;99324.31;5188316;28;20474;-79
2021/12/01 00:42:06;;;;;;;8.50;1.73;;;;;;;6.25;100.00;99322.03;5193887;28;20802;-77
2021/12/01 00:44:36;;;;;;;5.47;1.40;;;;;;;6.18;100.00;99311.03;5188961;28;20053;-79
2021/12/01 00:47:07;;;;;;;4.25;1.25;;;;;;;6.12;100.00;99302.63;5187799;28;20463;-80
2021/12/01 00:49:37;;;;;;;5.28;1.23;;;;;;;6.12;100.00;99297.44;5192476;28;20022;-80
2021/12/01 00:52:08;;;;;;;5.10;1.25;;;;;;;6.12;100.00;99303.47;5175622;28;20037;-77
2021/12/01 00:54:39;;;;;;;7.25;1.40;;;;;;;6.07;100.00;99299.38;5175016;28;20021;-79
2021/12/01 00:57:09;;;;;;;4.97;1.30;;;;;;;6.07;100.00;99295.03;5192124;28;20472;-79
2021/12/01 00:59:39;;;;;;;6.70;1.38;;;;;;;5.98;100.00;99289.34;5189420;28;20337;-80
2021/12/01 01:02:10;;;;;;;6.75;1.10;;;;;;;6.07;100.00;99278.63;5188717;28;20042;-78
2021/12/01 01:04:40;;;;;;;3.80;1.25;;;;;;;6.00;100.00;99270.25;5195844;28;20037;-79
2021/12/01 01:07:10;;;;;;;4.57;1.20;;;;;;;6.00;100.00;99266.78;5192438;28;20068;-79
2021/12/01 01:09:43;;;;;;;7.50;1.33;;;;;;;5.98;100.00;99264.28;5195960;28;20088;-79
2021/12/01 01:18:06;;;;;;;5.18;1.20;;;;;;;5.94;100.00;99247.13;5183977;28;20434;-79
2021/12/01 01:20:36;;;;;;;7.13;1.05;;;;;;;5.93;100.00;99240.25;5191841;28;20033;-79
2021/12/01 01:23:07;;;;;;;3.47;1.05;;;;;;;5.92;100.00;99225.59;5200165;28;20464;-79
2021/12/01 01:25:37;;;;;;;7.40;1.30;;;;;;;5.79;100.00;99229.59;5196322;28;20065;-79
2021/12/01 01:28:07;;;;;;;5.65;1.35;;;;;;;5.90;100.00;99214.44;5198619;28;20083;-80
2021/12/01 01:30:38;;;;;;;5.88;1.40;;;;;;;5.86;100.00;99212.03;5195013;28;20483;-79
2021/12/01 01:33:08;;;;;;;4.40;1.08;;;;;;;5.84;100.00;99206.06;5196050;28;20026;-81
2021/12/01 01:35:39;;;;;;;6.47;1.17;;;;;;;5.84;100.00;99193.09;5199631;28;20490;-80
2021/12/01 01:38:09;;;;;;;5.15;1.45;;;;;;;5.85;100.00;99187.88;5190728;28;20065;-80
2021/12/01 01:40:40;;;;;;;3.78;1.30;;;;;;;5.77;100.00;99181.25;5189583;28;20076;-80
2021/12/01 01:43:11;;;;;;;6.03;1.20;;;;;;;5.83;100.00;99170.69;5198568;28;20045;-81
2021/12/01 01:45:41;;;;;;;4.68;0.90;;;;;;;5.79;100.00;99167.38;5195424;28;20447;-79
2021/12/01 01:48:14;;;;;;;5.75;1.40;;;;;;;5.87;100.00;99156.69;5187130;28;20476;-81
2021/12/01 01:50:44;;;;;;;3.22;1.17;;;;;;;5.93;100.00;99146.09;5196800;28;20431;-81
2021/12/01 01:53:23;;;;;;;6.32;1.95;;;;;;;5.92;100.00;99150.41;5197899;28;20033;-80
2021/12/01 01:55:58;;;;;;;4.95;1.15;;;;;;;5.94;100.00;99132.22;5195342;28;20021;-80
2021/12/01 01:58:29;;;;;;;5.33;1.30;;;;;;;5.91;100.00;99127.16;5181545;28;20414;-81
2021/12/01 02:01:18;;;;;;;3.30;0.98;;;;;;;5.84;100.00;99115.34;5196601;28;20133;-80
2021/12/01 02:03:49;;;;;;;7.07;1.20;;;;;;;5.88;100.00;99114.34;5193916;28;20025;-80
2021/12/01 02:06:23;;;;;;;4.18;1.25;;;;;;;5.88;100.00;99101.38;5188883;28;20120;-80
2021/12/01 02:08:57;;;;;;;3.03;0.80;;;;;;;5.79;100.00;99093.97;5197867;28;20026;-80
2021/12/01 02:11:28;;;;;;;3.72;0.80;;;;;;;5.71;100.00;99093.41;5196106;28;20030;-77
2021/12/01 02:13:59;;;;;;;5.50;0.90;;;;;;;5.82;100.00;99094.69;5198631;28;20029;-81
2021/12/01 02:16:29;;;;;;;3.05;1.00;;;;;;;5.76;100.00;99087.09;5189100;28;20024;-79
2021/12/01 02:19:00;;;;;;;5.30;0.93;;;;;;;5.74;100.00;99082.91;5185605;28;20044;-79
2021/12/01 02:21:31;;;;;;;3.42;1.00;;;;;;;5.66;100.00;99072.84;5187793;28;20025;-78
2021/12/01 02:24:08;;;;;;;3.35;1.08;;;;;;;5.60;100.00;99067.06;5198111;28;20037;-80
2021/12/01 02:26:46;;;;;;;1.58;0.73;;;;;;;5.64;100.00;99056.53;5191164;28;20503;-80
2021/12/01 02:29:21;;;;;;;4.45;0.90;;;;;;;5.57;100.00;99056.81;5210084;22;20487;-78
2021/12/01 02:31:53;;;;;;;3.67;1.05;;;;;;;5.60;100.00;99043.75;5184756;28;20124;-77
2021/12/01 02:34:24;;;;;;;1.88;0.95;;;;;;;5.61;100.00;99045.44;5184189;28;20038;-78
2021/12/01 02:36:57;;;;;;;3.67;1.20;;;;;;;5.57;100.00;99041.28;5179255;28;20037;-77
2021/12/01 02:39:28;;;;;;;3.90;1.10;;;;;;;5.53;100.00;99035.38;5173713;28;20023;-77
2021/12/01 02:42:01;;;;;;;2.97;1.00;;;;;;;5.55;100.00;99037.91;5184163;28;20867;-78
2021/12/01 02:44:31;;;;;;;1.77;1.00;;;;;;;5.51;100.00;99023.38;5174804;28;20046;-77
2021/12/01 02:47:03;;;;;;;3.72;0.70;;;;;;;5.53;100.00;99008.59;5180143;28;20037;-77
2021/12/01 02:49:34;;;;;;;2.38;0.70;;;;;;;5.51;100.00;99011.28;5188650;28;20026;-77
2021/12/01 02:52:05;;;;;;;1.95;0.98;;;;;;;5.58;100.00;99004.94;5179640;28;20034;-78
2021/12/01 02:54:35;;;;;;;2.28;0.77;;;;;;;5.59;100.00;98998.00;5175473;28;20022;-78
2021/12/01 02:57:06;;;;;;;2.88;0.90;;;;;;;5.53;100.00;98985.28;5182412;28;20034;-78
2021/12/01 02:59:38;;;;;;;2.25;0.82;;;;;;;5.63;100.00;98987.47;5178052;28;20038;-77
2021/12/01 03:02:10;;;;;;;1.98;0.73;;;;;;;5.66;100.00;98973.53;5181258;28;20041;-78
2021/12/01 03:04:40;;;;;;;1.25;0.65;;;;;;;5.68;100.00;98969.13;5178885;28;20424;-77
2021/12/01 03:07:11;;;;;;;3.45;0.98;;;;;;;5.65;100.00;98949.38;5184608;28;20030;-77
2021/12/01 03:09:42;;;;;;;1.88;0.88;;;;;;;5.71;100.00;98948.28;5171831;28;20158;-77
2021/12/01 03:12:12;;;;;;;3.20;0.95;;;;;;;5.74;100.00;98948.16;5178162;28;20102;-77
2021/12/01 03:14:42;;;;;;;1.92;0.80;;;;;;;5.74;100.00;98946.38;5176519;28;20023;-77
2021/12/01 03:17:13;;;;;;;3.03;1.10;;;;;;;5.75;100.00;98934.28;5187096;28;20045;-78
2021/12/01 03:19:43;;;;;;;3.65;1.00;;;;;;;5.74;100.00;98930.84;5182711;28;20029;-78
2021/12/01 03:22:14;;;;;;;2.83;0.90;;;;;;;5.71;100.00;98912.84;5182778;28;20022;-77
2021/12/01 03:24:45;;;;;;;2.25;0.77;;;;;;;5.75;100.00;98903.19;5178073;28;20138;-78
2021/12/01 03:27:16;;;;;;;4.70;0.73;;;;;;;5.75;100.00;98898.00;5181211;28;20050;-78
2021/12/01 03:29:48;;;;;;;2.15;0.70;;;;;;;5.84;100.00;98895.03;5186969;28;20037;-77
2021/12/01 03:32:20;;;;;;;1.90;0.80;;;;;;;5.80;100.00;98875.34;5180350;28;20090;-78
2021/12/01 03:34:50;;;;;;;2.83;0.80;;;;;;;5.87;100.00;98874.16;5180055;28;20048;-78
2021/12/01 03:37:21;;;;;;;1.80;0.85;;;;;;;5.94;100.00;98865.22;5178810;28;20038;-78
2021/12/01 03:39:51;;;;;;;2.20;0.80;;;;;;;5.90;100.00;98861.09;5182921;28;20093;-78
2021/12/01 03:42:21;;;;;;;2.75;0.80;;;;;;;5.94;100.00;98852.25;5183970;28;20081;-77
2021/12/01 03:44:55;;;;;;;1.73;0.80;;;;;;;6.00;100.00;98847.66;5180341;28;20162;-79
2021/12/01 03:47:26;;;;;;;2.65;0.75;;;;;;;6.02;100.00;98837.19;5182220;28;20030;-78
2021/12/01 03:49:57;;;;;;;1.50;0.68;;;;;;;6.01;100.00;98838.97;5185952;28;20034;-79
2021/12/01 03:52:27;;;;;;;1.52;0.68;;;;;;;6.02;100.00;98837.19;5175563;28;20029;-79
2021/12/01 03:54:58;;;;;;;2.22;0.90;;;;;;;6.05;100.00;98826.72;5172056;28;20037;-79
2021/12/01 03:57:29;;;;;;;2.95;0.90;;;;;;;6.06;100.00;98823.19;5171314;28;20124;-79
2021/12/01 03:59:59;;;;;;;1.48;0.73;;;;;;;6.06;100.00;98810.25;5184862;28;20022;-79
2021/12/01 04:02:30;;;;;;;2.30;0.60;;;;;;;6.04;100.00;98812.88;5178714;28;20048;-79
2021/12/01 04:05:00;;;;;;;1.33;0.88;;;;;;;6.00;100.00;98800.13;5181053;28;20519;-79
2021/12/01 04:07:31;;;;;;;3.22;0.77;;;;;;;6.12;100.00;98802.16;5177454;28;20042;-78
2021/12/01 04:10:07;;;;;;;3.08;0.90;;;;;;;6.08;100.00;98800.63;5175909;28;20388;-78
2021/12/01 04:12:37;;;;;;;3.35;0.88;;;;;;;6.09;100.00;98789.34;5183573;28;20083;-79
2021/12/01 04:15:08;;;;;;;1.92;1.00;;;;;;;6.02;100.00;98793.13;5171557;28;20435;-78
2021/12/01 04:17:40;;;;;;;2.55;0.90;;;;;;;6.10;100.00;98788.44;5175292;28;20033;-78
2021/12/01 04:20:12;;;;;;;1.60;0.90;;;;;;;6.20;100.00;98784.50;5167672;28;20029;-78
2021/12/01 04:22:44;;;;;;;2.30;0.80;;;;;;;6.27;100.00;98780.72;5170958;28;20026;-79
2021/12/01 04:25:16;;;;;;;1.05;0.65;;;;;;;6.30;100.00;98775.38;5178694;28;20108;-79
2021/12/01 04:27:46;;;;;;;1.20;0.50;;;;;;;6.35;100.00;98776.00;5181060;28;20033;-79
2021/12/01 04:30:21;;;;;;;1.77;0.40;;;;;;;6.61;100.00;98762.63;5168162;28;20048;-79
2021/12/01 04:32:53;;;;;;;2.10;0.47;;;;;;;6.69;100.00;98750.09;5178808;28;20022;-78
2021/12/01 04:35:25;;;;;;;0.70;0.40;;;;;;;6.77;100.00;98748.81;5177439;28;20030;-78
2021/12/01 04:37:57;;;;;;;0.40;0.38;;;;;;;6.98;100.00;98736.53;5177549;28;20504;-79
2021/12/01 04:40:27;;;;;;;0.40;0.40;;;;;;;7.12;100.00;98726.28;5169416;28;20034;-79
2021/12/01 04:42:58;;;;;;;0.75;0.47;;;;;;;7.13;100.00;98735.75;5167504;28;20510;-78
2021/12/01 04:45:31;;;;;;;0.60;0.40;;;;;;;7.19;100.00;98728.47;5175977;28;20038;-79
2021/12/01 04:48:02;;;;;;;1.63;0.60;;;;;;;7.24;100.00;98721.28;5181796;28;20018;-78
2021/12/01 04:50:32;;;;;;;0.68;0.50;;;;;;;7.32;100.00;98725.16;5185035;28;20027;-79
2021/12/01 04:53:03;;;;;;;0.73;0.60;;;;;;;7.35;100.00;98712.00;5167399;28;20026;-78
2021/12/01 04:55:34;;;;;;;0.50;0.50;;;;;;;7.34;100.00;98719.91;5173004;28;20041;-79
2021/12/01 04:58:04;;;;;;;1.45;0.70;;;;;;;7.37;100.00;98709.34;5173184;28;20040;-79
2021/12/01 05:00:36;;;;;;;0.77;0.60;;;;;;;7.39;100.00;98697.09;5188701;28;20014;-78
2021/12/01 05:03:07;;;;;;;0.70;0.50;;;;;;;7.47;100.00;98690.59;5184364;28;20097;-79
2021/12/01 05:05:37;;;;;;;0.50;0.50;;;;;;;7.43;100.00;98689.06;5188531;28;20053;-79
2021/12/01 05:08:08;;;;;;;1.65;0.52;;;;;;;7.48;100.00;98687.06;5184548;28;20095;-78
2021/12/01 05:10:38;;;;;;;1.25;0.60;;;;;;;7.50;100.00;98682.63;5188650;28;20026;-78
2021/12/01 05:13:08;;;;;;;0.60;0.60;;;;;;;7.56;100.00;98678.84;5184590;28;20026;-78
2021/12/01 05:15:39;;;;;;;1.20;0.60;;;;;;;7.52;100.00;98670.38;5191031;28;20026;-79
2021/12/01 05:18:09;;;;;;;1.73;0.70;;;;;;;7.60;100.00;98675.16;5191367;28;20033;-79
2021/12/01 05:20:40;;;;;;;0.73;0.50;;;;;;;7.54;100.00;98672.91;5173281;28;20100;-79
2021/12/01 05:23:15;;;;;;;2.65;0.90;;;;;;;7.58;100.00;98671.81;5180859;28;20373;-79
2021/12/01 05:25:46;;;;;;;1.67;0.60;;;;;;;7.59;100.00;98666.53;5189599;28;20029;-78
2021/12/01 05:28:16;;;;;;;0.60;0.43;;;;;;;7.56;100.00;98664.09;5154237;28;20061;-80
2021/12/01 05:30:47;;;;;;;0.75;0.55;;;;;;;7.58;100.00;98656.22;5180733;28;20074;-79
2021/12/01 05:33:18;;;;;;;1.40;0.60;;;;;;;7.54;100.00;98655.53;5179736;28;20031;-78
2021/12/01 05:35:48;;;;;;;1.10;0.65;;;;;;;7.61;100.00;98651.72;5177588;28;20037;-78
2021/12/01 05:38:19;;;;;;;0.80;0.60;;;;;;;7.58;100.00;98651.88;5182428;28;20034;-79
2021/12/01 05:40:50;;;;;;;1.33;0.70;;;;;;;7.61;100.00;98649.09;5171814;28;20022;-79
2021/12/01 05:43:21;;;;;;;0.40;0.40;;;;;;;7.63;100.00;98634.25;5181758;28;20259;-78
2021/12/01 05:45:51;;;;;;;0.50;0.40;;;;;;;7.62;100.00;98624.78;5187510;28;20071;-78
2021/12/01 05:48:22;;;;;;;3.15;0.50;;;;;;;7.61;100.00;98622.25;5192279;28;20030;-78
2021/12/01 05:50:52;;;;;;;0.55;0.40;;;;;;;7.58;100.00;98615.50;5183163;28;20026;-79
2021/12/01 05:53:24;;;;;;;1.73;0.43;;;;;;;7.59;100.00;98611.97;5178435;28;20101;-78
2021/12/01 05:55:54;;;;;;;1.55;0.52;;;;;;;7.56;100.00;98604.31;5176795;28;20045;-78
2021/12/01 05:58:25;;;;;;;0.50;0.50;;;;;;;7.68;100.00;98603.66;5182667;28;20169;-80
2021/12/01 06:00:55;;;;;;;0.77;0.43;;;;;;;7.66;100.00;98594.28;5174238;28;20073;-78
2021/12/01 06:03:26;;;;;;;2.50;0.45;;;;;;;7.67;100.00;98581.19;5190830;28;20056;-78
2021/12/01 06:05:56;;;;;;;1.05;0.40;;;;;;;7.67;100.00;98582.94;5176997;28;20523;-78
2021/12/01 06:08:27;;;;;;;0.45;0.43;;;;;;;7.62;100.00;98569.34;5184276;28;20475;-78
2021/12/01 06:10:57;;;;;;;0.90;0.47;;;;;;;7.67;100.00;98556.97;5175899;28;20076;-79
2021/12/01 06:13:28;;;;;;;0.57;0.47;;;;;;;7.61;100.00;98550.34;5190703;28;20030;-79
2021/12/01 06:15:58;;;;;;;0.82;0.50;;;;;;;7.64;100.00;98533.72;5180644;28;20026;-79
2021/12/01 06:18:30;;;;;;;1.17;0.70;;;;;;;7.62;100.00;98527.78;5174958;28;20097;-79
2021/12/01 06:21:00;;;;;;;0.88;0.50;;;;;;;7.62;100.00;98539.03;5174310;28;20111;-80
2021/12/01 06:23:31;;;;;;;0.82;0.43;;;;;;;7.59;100.00;98536.59;5176513;28;20058;-79
2021/12/01 06:26:01;;;;;;;0.73;0.60;;;;;;;7.63;100.00;98522.50;5182246;28;20030;-79
2021/12/01 06:28:32;;;;;;;0.65;0.32;;;;;;;7.65;100.00;98525.00;5180358;28;20065;-79
2021/12/01 06:31:02;;;;;;;0.70;0.50;;;;;;;7.63;100.00;98519.91;5179114;28;20034;-79
2021/12/01 06:33:32;;;;;;;0.93;0.60;;;;;;;7.59;100.00;98518.41;5177927;28;20036;-79
2021/12/01 06:36:03;;;;;;;0.73;0.43;;;;;;;7.59;100.00;98517.56;5183243;28;20109;-78
2021/12/01 06:38:34;;;;;;;0.90;0.47;;;;;;;7.62;100.00;98512.16;5172371;28;20061;-79
2021/12/01 06:41:04;;;;;;;0.60;0.50;;;;;;;7.60;100.00;98512.28;5186831;28;20030;-80
2021/12/01 06:43:34;;;;;;;1.50;0.45;;;;;;;7.58;100.00;98508.94;5173165;28;20026;-80
2021/12/01 06:46:05;;;;;;;0.55;0.45;;;;;;;7.62;100.00;98509.56;5167199;28;20026;-79
2021/12/01 06:48:35;;;;;;;0.47;0.40;;;;;;;7.64;100.00;98508.56;5178579;28;20411;-79
2021/12/01 06:51:05;;;;;;;0.60;0.40;;;;;;;7.65;100.00;98497.25;5178166;28;20030;-80
2021/12/01 06:53:36;;;;;;;1.77;0.60;;;;;;;7.67;100.00;98485.00;5181123;28;20036;-80
2021/12/01 06:56:08;;;;;;;0.70;0.40;;;;;;;7.73;100.00;98486.41;5177022;28;20053;-79
2021/12/01 06:58:38;;;;;;;0.90;0.50;;;;;;;7.74;100.00;98470.72;5180791;28;20586;-79
2021/12/01 07:01:09;;;;;;;0.85;0.57;;;;;;;7.78;100.00;98473.97;5176893;28;20166;-79
2021/12/01 07:03:40;;;;;;;0.80;0.63;;;;;;;7.75;100.00;98477.63;5180127;28;20034;-79
2021/12/01 07:06:11;;;;;;;0.65;0.50;;;;;;;7.70;100.00;98479.63;5172219;28;20444;-79
2021/12/01 07:08:41;;;;;;;0.93;0.50;;;;;;;7.71;100.00;98455.31;5176339;28;20087;-79
2021/12/01 07:11:12;;;;;;;0.63;0.50;;;;;;;7.74;100.00;98457.72;5176927;28;20026;-78
2021/12/01 07:13:42;;;;;;;2.88;0.50;;;;;;;7.80;100.00;98465.19;5181161;28;20069;-79
2021/12/01 07:16:13;;;;;;;1.45;0.68;;;;;;;7.81;100.00;98466.84;5182505;28;20025;-79
2021/12/01 07:18:43;;;;;;;0.80;0.50;;;;;;;7.84;100.00;98456.25;5185780;28;20095;-79
2021/12/01 07:21:14;;;;;;;0.80;0.57;;;;;;;7.80;100.00;98453.94;5181974;28;20095;-80
2021/12/01 07:23:44;;;;;;;2.45;0.65;;;;;;;7.81;100.00;98451.25;5176794;28;20041;-79
2021/12/01 07:26:15;;;;;;;1.00;0.60;;;;;;;7.82;100.00;98450.31;5178509;28;20479;-79
2021/12/01 07:28:45;;;;;;;0.68;0.55;;;;;;;7.74;100.00;98455.13;5178054;28;20026;-79
2021/12/01 07:31:17;;;;;;;0.90;0.57;;;;;;;7.79;100.00;98445.31;5179577;28;20034;-79
2021/12/01 07:33:47;;;;;;;0.70;0.50;;;;;;;7.74;100.00;98438.69;5177817;28;20034;-78
2021/12/01 07:36:18;;;;;;;1.20;0.50;;;;;;;7.71;100.00;98449.28;5187042;28;20026;-80
2021/12/01 07:38:56;;;;;;;0.70;0.40;;;;;;;7.71;100.00;98439.69;5300748;27;20403;-78
2021/12/01 07:41:27;;;;;;;0.95;0.55;;;;;;;7.70;100.00;98422.44;5267130;28;20028;-79
2021/12/01 07:43:57;;;;;;;0.68;0.50;;;;;;;7.70;100.00;98422.44;5262744;28;20043;-78
2021/12/01 07:46:28;;;;;;;0.90;0.60;;;;;;;7.73;100.00;98413.63;5268400;28;20025;-79
2021/12/01 07:51:32;;;;;;;0.70;0.52;;;;;;;7.73;100.00;98403.22;5245906;28;20033;-83
2021/12/01 07:54:02;;;;;;;1.02;0.63;;;;;;;7.69;100.00;98399.16;5245317;28;20037;-80
2021/12/01 07:56:32;;;;;;;0.60;0.60;;;;;;;7.63;100.00;98382.16;5245241;28;20037;-83
2021/12/01 07:59:03;;;;;;;0.85;0.60;;;;;;;7.64;100.00;98370.81;5245183;28;20033;-83
2021/12/01 08:01:33;;;;;;;0.50;0.40;;;;;;;7.71;100.00;98366.91;5247067;28;20029;-82
2021/12/01 08:04:04;;;;;;;0.70;0.43;;;;;;;7.73;100.00;98365.06;5228209;28;20024;-82
2021/12/01 08:06:35;;;;;;;0.80;0.60;;;;;;;7.73;100.00;98353.84;5234082;28;20525;-81
2021/12/01 08:09:06;;;;;;;0.90;0.60;;;;;;;7.85;100.00;98348.75;5231299;28;20040;-82
2021/12/01 08:11:38;;;;;;;3.00;0.80;;;;;;;7.81;100.00;98336.00;5232184;28;20029;-79
2021/12/01 08:14:08;;;;;;;4.45;0.75;;;;;;;7.83;100.00;98324.59;5236294;28;20052;-82
2021/12/01 08:16:39;;;;;;;1.85;0.70;;;;;;;7.76;100.00;98306.88;5229119;28;20098;-81
2021/12/01 08:19:09;;;;;;;1.92;0.80;;;;;;;7.69;100.00;98298.59;5230032;28;20056;-84
2021/12/01 08:21:40;;;;;;;1.20;0.75;;;;;;;7.73;100.00;98292.28;5235455;28;20033;-82
2021/12/01 08:24:12;;;;;;;1.35;0.80;;;;;;;7.76;100.00;98289.53;5235345;28;20024;-80
2021/12/01 08:26:43;;;;;;;2.25;0.75;;;;;;;7.78;100.00;98287.66;5233144;28;20025;-80
2021/12/01 08:29:15;;;;;;;1.55;0.90;;;;;;;7.83;100.00;98293.41;5225959;28;20016;-80
2021/12/01 08:31:45;;;;;;;1.15;0.85;;;;;;;7.96;100.00;98301.28;5230497;28;20029;-82
2021/12/01 08:34:15;;;;;;;1.05;0.73;;;;;;;8.00;100.00;98295.81;5232358;28;20060;-81
2021/12/01 08:36:46;;;;;;;1.10;0.73;;;;;;;8.05;100.00;98295.53;5231801;28;20113;-83
2021/12/01 08:39:17;;;;;;;1.20;0.70;;;;;;;7.97;100.00;98289.94;5233364;28;20021;-81
2021/12/01 08:41:47;;;;;;;1.17;0.70;;;;;;;8.01;100.00;98289.66;5230958;28;20059;-80
2021/12/01 08:44:18;;;;;;;0.93;0.60;;;;;;;7.93;100.00;98285.88;5229898;28;20028;-82
2021/12/01 08:46:49;;;;;;;1.02;0.60;;;;;;;7.90;100.00;98294.69;5224272;28;20040;-83
2021/12/01 08:49:19;;;;;;;1.52;0.80;;;;;;;7.92;100.00;98286.81;5214611;28;20542;-82
2021/12/01 08:51:49;;;;;;;1.30;0.70;;;;;;;7.97;100.00;98277.81;5218713;28;20577;-81
2021/12/01 08:54:20;;;;;;;1.77;0.70;;;;;;;7.94;100.00;98275.41;5215932;28;20025;-81
2021/12/01 08:56:50;;;;;;;0.57;0.43;;;;;;;7.94;100.00;98270.19;5208376;28;20284;-80
2021/12/01 08:59:21;;;;;;;0.70;0.50;;;;;;;7.92;100.00;98282.47;5219306;28;20478;-82
2021/12/01 09:01:51;;;;;;;0.63;0.50;;;;;;;7.94;100.00;98284.94;5219570;28;20047;-82
2021/12/01 09:04:22;;;;;;;0.80;0.40;;;;;;;7.94;100.00;98272.78;5224224;28;20025;-81
2021/12/01 09:06:52;;;;;;;1.00;0.50;;;;;;;7.98;100.00;98276.88;5216941;28;20032;-81
2021/12/01 09:09:22;;;;;;;0.85;0.50;;;;;;;7.98;100.00;98274.25;5219716;28;20025;-80
2021/12/01 09:11:54;;;;;;;1.00;0.30;;;;;;;8.00;100.00;98258.56;5222324;28;20334;-80
2021/12/01 09:14:26;;;;;;;0.73;0.40;;;;;;;7.99;100.00;98255.13;5222554;28;20029;-80
2021/12/01 09:16:56;;;;;;;0.55;0.40;;;;;;;7.96;100.00;98238.88;5215790;28;20039;-81
2021/12/01 09:19:27;;;;;;;1.13;0.50;;;;;;;8.10;100.00;98238.84;5222101;28;20084;-81
2021/12/01 09:21:57;;;;;;;0.68;0.50;;;;;;;8.12;100.00;98237.84;5221683;28;20025;-81
2021/12/01 09:24:28;;;;;;;0.75;0.40;;;;;;;8.13;100.00;98233.44;5218328;28;20024;-81
2021/12/01 09:26:58;;;;;;;0.57;0.40;;;;;;;8.07;100.00;98228.66;5216767;28;20021;-81
2021/12/01 09:29:29;;;;;;;2.17;0.50;;;;;;;8.00;100.00;98241.19;5217068;28;20021;-82
2021/12/01 09:32:01;;;;;;;1.25;0.50;;;;;;;8.07;100.00;98229.47;5224744;28;20029;-82
2021/12/01 09:34:31;;;;;;;0.80;0.52;;;;;;;8.08;100.00;98225.94;5220523;28;20033;-81
2021/12/01 09:37:02;;;;;;;0.80;0.30;;;;;;;7.99;100.00;98229.13;5224052;28;20022;-82
2021/12/01 09:39:32;;;;;;;0.80;0.40;;;;;;;7.99;100.00;98220.47;5217365;28;20078;-82
2021/12/01 09:42:04;;;;;;;1.05;0.50;;;;;;;7.98;100.00;98216.22;5223465;28;20081;-83
2021/12/01 09:44:36;;;;;;;0.85;0.40;;;;;;;8.04;100.00;98205.44;5218626;28;20244;-81
2021/12/01 09:47:07;;;;;;;0.70;0.55;;;;;;;8.10;100.00;98208.50;5207644;28;20029;-83
2021/12/01 09:49:37;;;;;;;0.88;0.50;;;;;;;8.12;100.00;98216.19;5214510;28;20029;-83
2021/12/01 09:52:09;;;;;;;0.60;0.32;;;;;;;8.08;100.00;98204.31;5222822;28;20437;-80
2021/12/01 09:54:40;;;;;;;0.65;0.40;;;;;;;8.17;100.00;98186.34;5218551;28;20037;-81
2021/12/01 09:57:13;;;;;;;1.13;0.50;;;;;;;8.27;100.00;98190.06;5216631;28;20021;-80
2021/12/01 09:59:44;;;;;;;1.30;0.40;;;;;;;8.12;100.00;98175.41;5210703;28;20037;-81
2021/12/01 10:02:16;;;;;;;1.33;0.60;;;;;;;8.31;100.00;98182.88;5221128;28;20106;-81
2021/12/01 10:04:47;;;;;;;1.33;0.50;;;;;;;8.28;100.00;98170.06;5220941;28;20284;-81
2021/12/01 10:07:23;;;;;;;0.60;0.40;;;;;;;8.32;100.00;98161.97;5238589;28;20044;-82
2021/12/01 10:09:57;;;;;;;0.40;0.40;;;;;;;8.29;100.00;98170.00;5218620;28;20036;-83
2021/12/01 10:12:43;;;;;;;1.17;0.50;;;;;;;8.40;100.00;98159.69;5214810;28;20032;-84
2021/12/01 10:15:27;;;;;;;1.15;0.57;;;;;;;8.43;100.00;98141.31;5232860;28;20036;-82
2021/12/01 10:18:12;;;;;;;0.50;0.40;;;;;;;8.44;100.00;98147.34;5214219;28;20029;-80
2021/12/01 10:20:45;;;;;;;0.80;0.40;;;;;;;8.31;100.00;98139.50;5218273;28;20086;-83
2021/12/01 10:23:16;;;;;;;1.58;0.50;;;;;;;8.34;100.00;98118.47;5220962;28;20056;-81
2021/12/01 10:25:47;;;;;;;1.45;0.50;;;;;;;8.29;100.00;98119.72;5219983;28;20022;-81
2021/12/01 10:28:45;;;;;;;0.60;0.32;;;;;;;8.32;100.00;98127.31;5222513;28;20124;-82
2021/12/01 10:31:30;;;;;;;1.13;0.52;;;;;;;8.36;100.00;98113.19;5222875;28;20041;-82
2021/12/01 10:34:33;;;;;;;0.60;0.40;;;;;;;8.37;100.00;98113.06;5214359;28;20025;-81
2021/12/01 10:37:28;;;;;;;0.40;0.30;;;;;;;8.41;100.00;98109.31;5222043;28;20467;-81
2021/12/01 10:40:08;;;;;;;0.50;0.30;;;;;;;8.41;100.00;98093.72;5221087;28;20028;-83
2021/12/01 10:43:06;;;;;;;0.22;0.22;;;;;;;8.43;100.00;98086.66;5218787;28;20029;-80
2021/12/01 10:45:45;;;;;;;1.58;0.38;;;;;;;8.40;100.00;98078.22;5211044;28;20040;-79
2021/12/01 10:48:26;;;;;;;0.52;0.38;;;;;;;8.48;100.00;98079.38;5215150;28;20431;-82
2021/12/01 10:50:57;;;;;;;0.82;0.30;;;;;;;8.37;100.00;98076.66;5223397;28;20079;-81
2021/12/01 10:53:28;;;;;;;1.30;0.47;;;;;;;8.43;100.00;98078.84;5208042;28;20029;-80
2021/12/01 10:56:02;;;;;;;0.40;0.40;;;;;;;8.43;100.00;98065.00;5217840;28;20050;-80
2021/12/01 10:58:38;;;;;;;0.60;0.45;;;;;;;8.44;100.00;98054.50;5219926;28;20045;-81
2021/12/01 11:01:20;;;;;;;0.82;0.40;;;;;;;8.48;100.00;98058.56;5217843;28;20055;-82
2021/12/01 11:03:52;;;;;;;0.70;0.40;;;;;;;8.37;100.00;98048.03;5207823;28;20045;-81
2021/12/01 11:06:23;;;;;;;0.40;0.20;;;;;;;8.37;100.00;98029.81;5206118;28;20044;-81
2021/12/01 11:08:57;;;;;;;0.50;0.32;;;;;;;8.38;100.00;98028.88;5208731;28;20549;-82
2021/12/01 11:11:50;;;;;;;0.20;0.20;;;;;;;8.43;100.00;98024.22;5218298;28;20482;-82
2021/12/01 11:14:22;;;;;;;0.25;0.22;;;;;;;8.46;100.00;98003.19;5208818;28;20049;-80
2021/12/01 11:16:53;;;;;;;0.90;0.63;;;;;;;8.37;100.00;98016.81;5209439;28;20029;-81
2021/12/01 11:19:33;;;;;;;1.30;0.60;;;;;;;8.40;100.00;98007.97;5213173;28;20090;-80
2021/12/01 11:22:31;;;;;;;0.98;0.50;;;;;;;8.41;100.00;98010.44;5210713;28;20034;-81
2021/12/01 11:25:22;;;;;;;0.40;0.30;;;;;;;8.52;100.00;97988.91;5206879;28;20561;-81
2021/12/01 11:27:53;;;;;;;0.47;0.28;;;;;;;8.60;100.00;97978.81;5214731;28;20064;-82
2021/12/01 11:30:24;;;;;;;1.65;0.35;;;;;;;8.65;100.00;97971.50;5207284;28;20446;-81
2021/12/01 11:32:55;;;;;;;0.32;0.25;;;;;;;8.78;100.00;97954.09;5219858;28;20093;-79
2021/12/01 11:35:25;;;;;;;0.77;0.30;;;;;;;8.84;100.00;97972.72;5214279;28;20045;-82
2021/12/01 11:37:57;;;;;;;0.40;0.30;;;;;;;8.72;100.00;97957.94;5214205;28;20025;-81
2021/12/01 11:40:29;;;;;;;0.40;0.30;;;;;;;8.75;100.00;97947.31;5210203;28;20029;-83
2021/12/01 11:43:00;;;;;;;0.55;0.38;;;;;;;8.77;100.00;97955.03;5219254;28;20048;-82
2021/12/01 11:45:30;;;;;;;0.98;0.40;;;;;;;8.86;100.00;97952.63;5211829;28;20091;-80
2021/12/01 11:48:01;;;;;;;0.82;0.30;;;;;;;8.89;100.00;97952.41;5211448;28;20032;-80
2021/12/01 11:50:35;;;;;;;0.55;0.30;;;;;;;8.91;100.00;97936.66;5213162;28;20025;-82
2021/12/01 11:53:22;;;;;;;0.68;0.38;;;;;;;8.89;100.00;97926.34;5224747;28;20449;-83
2021/12/01 11:56:11;;;;;;;0.55;0.40;;;;;;;9.02;100.00;97918.50;5219931;28;20375;-81
2021/12/01 11:58:41;;;;;;;0.57;0.30;;;;;;;8.89;100.00;97917.72;5203794;28;20040;-81
2021/12/01 12:01:21;;;;;;;0.43;0.30;;;;;;;8.86;100.00;97917.94;5206919;28;20560;-82
2021/12/01 12:03:54;;;;;;;1.08;0.40;;;;;;;9.01;100.00;97922.88;5209293;28;20040;-80
2021/12/01 12:06:30;;;;;;;0.52;0.25;;;;;;;9.08;100.00;97908.47;5207098;28;20273;-82